createdAt,value
2023-05-13T00:00:44.794Z,11.50
2023-05-13T00:01:45.704Z,11.80
2023-05-13T00:02:46.782Z,11.60
2023-05-13T00:03:47.333Z,11.70
2023-05-13T00:04:47.922Z,10.90
2023-05-13T00:05:48.847Z,11.70
2023-05-13T00:06:49.746Z,12.00
2023-05-13T00:07:50.670Z,10.20
2023-05-13T00:08:51.571Z,11.30
2023-05-13T00:09:52.470Z,10.40
2023-05-13T00:10:53.363Z,13.10
2023-05-13T00:11:54.312Z,12.10
2023-05-13T00:12:55.207Z,12.40
2023-05-13T00:13:56.128Z,13.80
2023-05-13T00:14:57.052Z,12.70
2023-05-13T00:15:57.963Z,12.60
2023-05-13T00:16:58.867Z,10.30
2023-05-13T00:17:59.814Z,12.20
2023-05-13T00:19:00.740Z,11.20
2023-05-13T00:20:01.617Z,12.50
2023-05-13T00:21:02.527Z,10.40
2023-05-13T00:22:03.411Z,10.10
2023-05-13T00:23:04.311Z,9.80
2023-05-13T00:24:05.178Z,11.90
2023-05-13T00:25:06.089Z,10.70
2023-05-13T00:26:07.008Z,11.70
2023-05-13T00:27:07.901Z,12.20
2023-05-13T00:28:08.770Z,11.10
2023-05-13T00:29:09.670Z,11.40
2023-05-13T00:30:10.600Z,9.90
2023-05-13T00:31:11.521Z,11.70
2023-05-13T00:32:12.400Z,12.50
2023-05-13T00:33:13.306Z,12.20
2023-05-13T00:34:14.200Z,10.70
2023-05-13T00:35:15.093Z,10.40
2023-05-13T00:36:15.984Z,10.90
2023-05-13T00:37:16.886Z,10.20
2023-05-13T00:38:17.760Z,11.00
2023-05-13T00:39:18.670Z,11.50
2023-05-13T00:40:19.808Z,11.80
2023-05-13T00:41:20.290Z,12.50
2023-05-13T00:42:21.170Z,11.70
2023-05-13T00:43:22.060Z,12.30
2023-05-13T00:44:23.241Z,11.80
2023-05-13T00:45:23.656Z,10.50
2023-05-13T00:46:24.646Z,11.20
2023-05-13T00:47:25.060Z,11.20
2023-05-13T00:48:25.956Z,10.90
2023-05-13T00:49:26.863Z,11.90
2023-05-13T00:50:27.750Z,12.20
2023-05-13T00:51:28.631Z,11.80
2023-05-13T00:52:29.576Z,13.30
2023-05-13T00:53:30.449Z,9.50
2023-05-13T00:54:31.333Z,11.10
2023-05-13T00:55:32.225Z,11.20
2023-05-13T00:56:33.111Z,14.30
2023-05-13T00:57:33.995Z,12.10
2023-05-13T00:58:34.910Z,11.60
2023-05-13T00:59:35.794Z,11.20
2023-05-13T01:00:36.714Z,10.40
2023-05-13T01:01:37.747Z,11.50
2023-05-13T01:02:40.372Z,13.10
2023-05-13T01:03:39.039Z,12.20
2023-05-13T01:04:39.419Z,12.80
2023-05-13T01:05:40.332Z,12.70
2023-05-13T01:06:41.208Z,13.70
2023-05-13T01:07:42.105Z,11.40
2023-05-13T01:08:43.000Z,14.00
2023-05-13T01:09:43.876Z,12.50
2023-05-13T01:10:44.782Z,12.70
2023-05-13T01:11:45.662Z,11.00
2023-05-13T01:12:46.561Z,11.60
2023-05-13T01:13:47.464Z,12.90
2023-05-13T01:14:48.342Z,12.60
2023-05-13T01:15:49.291Z,13.30
2023-05-13T01:16:50.420Z,14.10
2023-05-13T01:17:51.283Z,11.10
2023-05-13T01:18:51.724Z,12.10
2023-05-13T01:19:52.584Z,13.60
2023-05-13T01:20:53.459Z,12.80
2023-05-13T01:21:54.376Z,13.10
2023-05-13T01:22:55.260Z,13.50
2023-05-13T01:23:56.279Z,12.60
2023-05-13T01:24:56.674Z,12.50
2023-05-13T01:25:57.574Z,16.40
2023-05-13T01:26:58.470Z,13.20
2023-05-13T01:27:59.359Z,11.90
2023-05-13T01:29:00.248Z,13.00
2023-05-13T01:30:01.136Z,13.40
2023-05-13T01:31:02.098Z,14.50
2023-05-13T01:32:02.963Z,12.60
2023-05-13T01:33:03.933Z,13.70
2023-05-13T01:34:04.821Z,13.00
2023-05-13T01:35:05.713Z,12.50
2023-05-13T01:36:06.626Z,11.60
2023-05-13T01:37:07.516Z,13.50
2023-05-13T01:38:08.414Z,13.70
2023-05-13T01:39:09.304Z,12.40
2023-05-13T01:40:20.515Z,13.00
2023-05-13T01:41:11.987Z,14.40
2023-05-13T01:42:11.883Z,13.50
2023-05-13T01:43:12.758Z,12.90
2023-05-13T01:44:13.657Z,14.50
2023-05-13T01:45:14.558Z,12.60
2023-05-13T01:46:15.503Z,13.30
2023-05-13T01:47:16.397Z,14.50
2023-05-13T01:48:17.283Z,13.00
2023-05-13T01:49:18.196Z,14.10
2023-05-13T01:50:19.196Z,13.10
2023-05-13T01:51:20.078Z,12.40
2023-05-13T01:52:20.965Z,13.50
2023-05-13T01:53:21.858Z,13.20
2023-05-13T01:54:22.769Z,12.50
2023-05-13T01:55:23.660Z,13.80
2023-05-13T01:56:24.558Z,13.00
2023-05-13T01:57:25.447Z,14.60
2023-05-13T01:58:26.333Z,12.00
2023-05-13T01:59:27.236Z,12.80
2023-05-13T02:00:28.117Z,12.50
2023-05-13T02:01:29.038Z,12.70
2023-05-13T02:02:29.902Z,13.80
2023-05-13T02:03:30.884Z,13.30
2023-05-13T02:04:31.318Z,14.40
2023-05-13T02:05:32.200Z,12.30
2023-05-13T02:06:33.092Z,14.50
2023-05-13T02:07:33.976Z,14.00
2023-05-13T02:08:34.907Z,12.70
2023-05-13T02:09:35.788Z,13.50
2023-05-13T02:10:36.671Z,13.70
2023-05-13T02:11:37.564Z,13.50
2023-05-13T02:12:38.455Z,13.10
2023-05-13T02:13:39.399Z,13.10
2023-05-13T02:14:40.261Z,13.00
2023-05-13T02:15:41.204Z,13.70
2023-05-13T02:16:42.096Z,12.70
2023-05-13T02:17:43.049Z,13.00
2023-05-13T02:18:44.007Z,13.50
2023-05-13T02:19:44.475Z,14.10
2023-05-13T02:20:45.330Z,13.80
2023-05-13T02:21:46.237Z,14.60
2023-05-13T02:22:47.136Z,12.80
2023-05-13T02:23:48.018Z,13.50
2023-05-13T02:24:48.894Z,12.90
2023-05-13T02:25:49.779Z,13.70
2023-05-13T02:26:50.699Z,13.60
2023-05-13T02:27:51.625Z,15.40
2023-05-13T02:28:52.493Z,13.30
2023-05-13T02:29:53.392Z,12.60
2023-05-13T02:30:54.283Z,14.70
2023-05-13T02:31:55.241Z,13.80
2023-05-13T02:32:56.249Z,13.20
2023-05-13T02:33:57.113Z,13.50
2023-05-13T02:34:57.998Z,14.50
2023-05-13T02:35:58.898Z,12.90
2023-05-13T02:36:59.810Z,13.50
2023-05-13T02:38:00.715Z,14.60
2023-05-13T02:39:01.610Z,14.40
2023-05-13T02:40:02.488Z,13.50
2023-05-13T02:41:03.401Z,13.00
2023-05-13T02:42:04.297Z,12.30
2023-05-13T02:43:05.199Z,13.60
2023-05-13T02:44:06.088Z,13.90
2023-05-13T02:45:06.987Z,16.70
2023-05-13T02:46:07.932Z,12.80
2023-05-13T02:47:08.844Z,13.20
2023-05-13T02:48:09.746Z,14.00
2023-05-13T02:49:10.612Z,14.70
2023-05-13T02:50:11.534Z,15.40
2023-05-13T02:51:12.458Z,13.90
2023-05-13T02:52:13.335Z,13.90
2023-05-13T02:53:14.237Z,12.90
2023-05-13T02:54:15.108Z,15.00
2023-05-13T02:55:16.104Z,13.80
2023-05-13T02:56:17.035Z,16.00
2023-05-13T02:57:17.884Z,13.10
2023-05-13T02:58:18.805Z,14.10
2023-05-13T02:59:19.717Z,14.40
2023-05-13T03:00:20.940Z,16.20
2023-05-13T03:01:21.491Z,12.80
2023-05-13T03:02:22.472Z,15.10
2023-05-13T03:03:23.010Z,14.10
2023-05-13T03:04:23.449Z,15.50
2023-05-13T03:05:24.316Z,14.90
2023-05-13T03:06:25.212Z,15.50
2023-05-13T03:07:26.087Z,15.20
2023-05-13T03:08:26.973Z,14.40
2023-05-13T03:09:27.881Z,16.00
2023-05-13T03:10:28.772Z,16.80
2023-05-13T03:11:29.645Z,15.20
2023-05-13T03:12:30.544Z,15.90
2023-05-13T03:13:31.456Z,14.60
2023-05-13T03:14:32.358Z,14.30
2023-05-13T03:15:33.242Z,15.00
2023-05-13T03:16:34.294Z,14.90
2023-05-13T03:17:34.787Z,14.60
2023-05-13T03:18:35.328Z,15.60
2023-05-13T03:19:36.186Z,13.60
2023-05-13T03:20:37.077Z,14.80
2023-05-13T03:21:37.978Z,13.70
2023-05-13T03:22:38.903Z,15.30
2023-05-13T03:23:39.809Z,14.80
2023-05-13T03:24:40.674Z,13.50
2023-05-13T03:25:41.567Z,13.00
2023-05-13T03:26:42.463Z,12.40
2023-05-13T03:27:43.364Z,13.90
2023-05-13T03:28:44.249Z,13.10
2023-05-13T03:29:45.160Z,13.30
2023-05-13T03:30:46.045Z,14.30
2023-05-13T03:31:47.031Z,13.20
2023-05-13T03:32:47.522Z,12.00
2023-05-13T03:33:48.424Z,13.50
2023-05-13T03:34:49.313Z,14.10
2023-05-13T03:35:50.223Z,14.50
2023-05-13T03:36:51.129Z,13.10
2023-05-13T03:37:52.030Z,12.60
2023-05-13T03:38:52.923Z,12.70
2023-05-13T03:39:53.801Z,12.60
2023-05-13T03:40:54.693Z,12.80
2023-05-13T03:41:55.620Z,13.50
2023-05-13T03:42:56.524Z,13.40
2023-05-13T03:43:57.396Z,13.80
2023-05-13T03:44:58.276Z,12.70
2023-05-13T03:45:59.248Z,11.40
2023-05-13T03:47:00.231Z,15.10
2023-05-13T03:48:01.234Z,12.80
2023-05-13T03:49:01.647Z,12.50
2023-05-13T03:50:02.504Z,13.40
2023-05-13T03:51:03.416Z,13.40
2023-05-13T03:52:04.313Z,353.70
2023-05-13T03:53:05.208Z,292.80
2023-05-13T03:54:06.097Z,353.50
2023-05-13T03:55:07.000Z,17.00
2023-05-13T03:56:08.059Z,22.80
2023-05-13T03:57:08.483Z,18.20
2023-05-13T03:58:09.372Z,14.10
2023-05-13T03:59:10.281Z,12.90
2023-05-13T04:00:11.212Z,12.40
2023-05-13T04:01:12.147Z,11.90
2023-05-13T04:02:13.093Z,12.80
2023-05-13T04:03:14.015Z,11.20
2023-05-13T04:04:14.882Z,14.20
2023-05-13T04:05:15.876Z,13.90
2023-05-13T04:06:16.767Z,12.10
2023-05-13T04:07:17.647Z,13.20
2023-05-13T04:08:18.566Z,14.20
2023-05-13T04:09:19.477Z,11.40
2023-05-13T04:10:20.657Z,11.80
2023-05-13T04:11:21.329Z,12.30
2023-05-13T04:12:22.214Z,12.30
2023-05-13T04:13:23.110Z,13.20
2023-05-13T04:14:24.053Z,11.80
2023-05-13T04:15:24.940Z,14.50
2023-05-13T04:16:25.922Z,12.30
2023-05-13T04:17:26.823Z,12.40
2023-05-13T04:18:27.771Z,12.30
2023-05-13T04:19:28.220Z,15.50
2023-05-13T04:20:29.141Z,14.30
2023-05-13T04:21:30.006Z,11.70
2023-05-13T04:22:30.894Z,13.70
2023-05-13T04:23:31.845Z,14.80
2023-05-13T04:24:32.706Z,12.50
2023-05-13T04:25:33.593Z,13.70
2023-05-13T04:26:34.480Z,13.70
2023-05-13T04:27:35.362Z,11.70
2023-05-13T04:28:36.289Z,12.30
2023-05-13T04:29:37.237Z,14.30
2023-05-13T04:30:38.114Z,11.30
2023-05-13T04:31:39.033Z,15.90
2023-05-13T04:32:39.927Z,13.40
2023-05-13T04:33:40.850Z,14.00
2023-05-13T04:34:41.717Z,12.80
2023-05-13T04:35:42.622Z,12.30
2023-05-13T04:36:43.486Z,12.50
2023-05-13T04:37:44.402Z,11.90
2023-05-13T04:38:45.302Z,10.90
2023-05-13T04:39:46.181Z,12.00
2023-05-13T04:40:47.083Z,12.60
2023-05-13T04:41:47.969Z,13.80
2023-05-13T04:42:48.890Z,13.20
2023-05-13T04:43:49.830Z,13.70
2023-05-13T04:44:50.717Z,11.60
2023-05-13T04:45:51.631Z,11.60
2023-05-13T04:46:52.542Z,14.00
2023-05-13T04:47:54.373Z,12.20
2023-05-13T04:48:54.445Z,12.30
2023-05-13T04:49:55.023Z,12.80
2023-05-13T04:50:55.689Z,13.40
2023-05-13T04:51:56.419Z,13.00
2023-05-13T04:52:57.274Z,12.50
2023-05-13T04:53:58.169Z,12.00
2023-05-13T04:54:59.239Z,12.50
2023-05-13T04:55:59.830Z,14.40
2023-05-13T04:57:00.737Z,13.80
2023-05-13T04:58:01.634Z,11.80
2023-05-13T04:59:02.514Z,14.40
2023-05-13T05:00:03.402Z,12.90
2023-05-13T05:01:04.332Z,14.30
2023-05-13T05:02:05.303Z,13.20
2023-05-13T05:03:05.832Z,12.80
2023-05-13T05:04:06.775Z,12.90
2023-05-13T05:05:07.650Z,13.60
2023-05-13T05:06:08.568Z,14.20
2023-05-13T05:07:09.469Z,12.50
2023-05-13T05:08:10.357Z,11.10
2023-05-13T05:09:11.239Z,13.50
2023-05-13T05:10:12.158Z,11.50
2023-05-13T05:11:13.118Z,12.60
2023-05-13T05:12:14.003Z,12.20
2023-05-13T05:13:14.909Z,11.60
2023-05-13T05:14:15.782Z,12.50
2023-05-13T05:15:16.703Z,12.60
2023-05-13T05:16:17.587Z,12.70
2023-05-13T05:17:18.533Z,11.90
2023-05-13T05:18:19.482Z,11.70
2023-05-13T05:19:20.484Z,14.60
2023-05-13T05:20:21.292Z,13.50
2023-05-13T05:21:21.838Z,13.50
2023-05-13T05:22:22.726Z,10.40
2023-05-13T05:23:23.608Z,11.40
2023-05-13T05:24:24.525Z,11.80
2023-05-13T05:25:25.414Z,12.20
2023-05-13T05:26:26.285Z,12.90
2023-05-13T05:27:27.170Z,11.40
2023-05-13T05:28:28.060Z,12.70
2023-05-13T05:29:28.967Z,11.20
2023-05-13T05:30:29.873Z,13.10
2023-05-13T05:31:30.796Z,13.70
2023-05-13T05:32:31.698Z,13.40
2023-05-13T05:33:32.591Z,12.20
2023-05-13T05:34:33.533Z,13.00
2023-05-13T05:35:34.391Z,13.40
2023-05-13T05:36:37.426Z,10.60
2023-05-13T05:37:36.093Z,11.90
2023-05-13T05:38:36.999Z,12.60
2023-05-13T05:39:37.895Z,13.50
2023-05-13T05:40:38.785Z,11.30
2023-05-13T05:41:39.670Z,13.30
2023-05-13T05:42:40.567Z,11.30
2023-05-13T05:43:41.489Z,11.70
2023-05-13T05:44:42.369Z,12.10
2023-05-13T05:45:43.279Z,13.70
2023-05-13T05:46:44.153Z,12.20
2023-05-13T05:47:45.103Z,12.10
2023-05-13T05:48:46.007Z,12.20
2023-05-13T05:49:46.921Z,12.20
2023-05-13T05:50:47.783Z,10.30
2023-05-13T05:51:48.669Z,12.20
2023-05-13T05:52:49.592Z,11.00
2023-05-13T05:53:50.492Z,12.80
2023-05-13T05:54:51.385Z,11.60
2023-05-13T05:55:53.168Z,13.10
2023-05-13T05:56:53.167Z,13.60
2023-05-13T05:57:54.073Z,12.90
2023-05-13T05:58:54.966Z,10.00
2023-05-13T05:59:55.870Z,10.70
2023-05-13T06:00:56.756Z,14.20
2023-05-13T06:01:57.682Z,12.40
2023-05-13T06:02:58.696Z,11.90
2023-05-13T06:03:59.310Z,13.10
2023-05-13T06:04:59.720Z,12.10
2023-05-13T06:06:00.583Z,10.30
2023-05-13T06:07:01.507Z,12.70
2023-05-13T06:08:02.372Z,11.90
2023-05-13T06:09:03.278Z,12.40
2023-05-13T06:10:05.423Z,11.20
2023-05-13T06:11:04.735Z,12.90
2023-05-13T06:12:05.644Z,11.20
2023-05-13T06:13:06.557Z,12.60
2023-05-13T06:14:07.485Z,13.30
2023-05-13T06:15:08.380Z,11.70
2023-05-13T06:16:09.311Z,13.10
2023-05-13T06:17:10.191Z,12.20
2023-05-13T06:18:11.079Z,13.50
2023-05-13T06:19:12.111Z,11.70
2023-05-13T06:20:12.699Z,10.50
2023-05-13T06:21:13.645Z,15.30
2023-05-13T06:22:14.541Z,11.10
2023-05-13T06:23:15.430Z,12.40
2023-05-13T06:24:16.321Z,15.30
2023-05-13T06:25:17.237Z,13.50
2023-05-13T06:26:18.122Z,12.10
2023-05-13T06:27:19.042Z,11.60
2023-05-13T06:28:19.924Z,11.80
2023-05-13T06:29:20.854Z,13.70
2023-05-13T06:30:21.959Z,13.60
2023-05-13T06:31:22.582Z,11.90
2023-05-13T06:32:23.543Z,12.90
2023-05-13T06:33:24.435Z,12.90
2023-05-13T06:34:25.345Z,12.60
2023-05-13T06:35:26.309Z,12.60
2023-05-13T06:36:27.193Z,11.00
2023-05-13T06:37:28.171Z,11.30
2023-05-13T06:38:29.017Z,12.00
2023-05-13T06:39:29.941Z,11.20
2023-05-13T06:40:30.819Z,10.80
2023-05-13T06:41:31.706Z,11.10
2023-05-13T06:42:32.601Z,13.30
2023-05-13T06:43:33.507Z,11.40
2023-05-13T06:44:34.414Z,11.60
2023-05-13T06:45:35.311Z,12.70
2023-05-13T06:46:36.258Z,12.70
2023-05-13T06:47:37.158Z,12.20
2023-05-13T06:48:38.044Z,12.10
2023-05-13T06:49:38.930Z,10.70
2023-05-13T06:50:39.832Z,13.40
2023-05-13T06:51:40.709Z,10.60
2023-05-13T06:52:42.117Z,11.90
2023-05-13T06:53:42.527Z,11.60
2023-05-13T06:54:43.403Z,11.50
2023-05-13T06:55:44.302Z,9.10
2023-05-13T06:56:45.188Z,12.40
2023-05-13T06:57:46.113Z,11.40
2023-05-13T06:58:47.022Z,10.50
2023-05-13T06:59:47.902Z,9.60
2023-05-13T07:00:48.870Z,9.70
2023-05-13T07:01:49.724Z,11.70
2023-05-13T07:02:50.661Z,12.70
2023-05-13T07:03:51.579Z,11.60
2023-05-13T07:04:52.431Z,9.40
2023-05-13T07:05:53.347Z,10.00
2023-05-13T07:06:54.210Z,10.90
2023-05-13T07:07:55.116Z,10.70
2023-05-13T07:08:56.005Z,8.70
2023-05-13T07:09:56.912Z,11.80
2023-05-13T07:10:57.803Z,9.50
2023-05-13T07:11:58.759Z,11.40
2023-05-13T07:12:59.652Z,12.60
2023-05-13T07:14:00.540Z,10.60
2023-05-13T07:15:01.437Z,9.20
2023-05-13T07:16:02.334Z,11.30
2023-05-13T07:17:03.347Z,10.60
2023-05-13T07:18:03.782Z,13.60
2023-05-13T07:19:04.760Z,9.00
2023-05-13T07:20:05.154Z,9.80
2023-05-13T07:21:06.138Z,8.70
2023-05-13T07:22:06.579Z,12.00
2023-05-13T07:23:07.478Z,13.60
2023-05-13T07:24:08.372Z,9.80
2023-05-13T07:25:09.285Z,10.10
2023-05-13T07:26:10.198Z,10.70
2023-05-13T07:27:11.231Z,11.30
2023-05-13T07:28:11.606Z,9.50
2023-05-13T07:29:12.546Z,10.30
2023-05-13T07:30:13.485Z,10.30
2023-05-13T07:31:14.432Z,10.30
2023-05-13T07:32:14.856Z,8.80
2023-05-13T07:33:15.444Z,8.80
2023-05-13T07:34:16.296Z,11.00
2023-05-13T07:35:17.200Z,8.20
2023-05-13T07:36:18.116Z,9.30
2023-05-13T07:37:19.040Z,10.90
2023-05-13T07:42:14.210Z,11.10
2023-05-13T07:43:15.222Z,11.40
2023-05-13T07:44:15.701Z,9.00
2023-05-13T07:45:16.162Z,9.00
2023-05-13T07:46:17.089Z,9.30
2023-05-13T07:47:18.313Z,10.90
2023-05-13T07:48:18.759Z,9.40
2023-05-13T07:49:19.679Z,9.60
2023-05-13T07:50:20.627Z,8.90
2023-05-13T07:51:21.572Z,10.20
2023-05-13T07:52:22.501Z,9.00
2023-05-13T07:53:23.390Z,9.80
2023-05-13T07:54:24.317Z,9.10
2023-05-13T07:55:25.316Z,11.30
2023-05-13T07:56:25.755Z,9.40
2023-05-13T07:57:26.642Z,10.70
2023-05-13T07:58:35.045Z,10.70
2023-05-13T07:59:28.474Z,10.30
2023-05-13T08:00:29.366Z,9.20
2023-05-13T08:01:30.301Z,11.30
2023-05-13T08:02:31.363Z,11.40
2023-05-13T08:03:32.490Z,8.40
2023-05-13T08:04:33.040Z,9.60
2023-05-13T08:05:33.456Z,10.40
2023-05-13T08:06:34.373Z,12.00
2023-05-13T08:07:35.258Z,8.70
2023-05-13T08:08:36.214Z,11.30
2023-05-13T08:09:37.101Z,9.30
2023-05-13T08:10:37.984Z,8.60
2023-05-13T08:11:38.873Z,9.20
2023-05-13T08:12:39.832Z,8.90
2023-05-13T08:13:40.768Z,11.30
2023-05-13T08:14:41.200Z,8.90
2023-05-13T08:15:42.082Z,8.80
2023-05-13T08:16:43.063Z,11.10
2023-05-13T08:17:43.638Z,8.60
2023-05-13T08:18:44.660Z,9.60
2023-05-13T08:19:45.042Z,10.40
2023-05-13T08:20:46.001Z,8.10
2023-05-13T08:21:46.670Z,8.80
2023-05-13T08:22:47.349Z,7.90
2023-05-13T08:23:48.304Z,8.40
2023-05-13T08:24:48.755Z,9.70
2023-05-13T08:25:49.651Z,8.20
2023-05-13T08:26:50.559Z,9.20
2023-05-13T08:27:51.484Z,10.20
2023-05-13T08:28:54.763Z,9.70
2023-05-13T08:29:52.945Z,8.50
2023-05-13T08:30:53.843Z,10.90
2023-05-13T08:31:54.825Z,10.30
2023-05-13T08:32:55.739Z,10.10
2023-05-13T08:33:56.588Z,9.70
2023-05-13T08:34:57.482Z,10.50
2023-05-13T08:35:58.372Z,10.40
2023-05-13T08:36:59.300Z,9.40
2023-05-13T08:38:00.198Z,8.40
2023-05-13T08:39:01.117Z,8.20
2023-05-13T08:40:02.007Z,8.20
2023-05-13T08:41:02.912Z,8.40
2023-05-13T08:42:03.873Z,9.80
2023-05-13T08:43:04.711Z,8.90
2023-05-13T08:44:05.622Z,9.20
2023-05-13T08:45:06.462Z,9.70
2023-05-13T08:46:07.390Z,9.70
2023-05-13T08:47:08.346Z,11.20
2023-05-13T08:48:09.100Z,9.80
2023-05-13T08:49:10.042Z,11.10
2023-05-13T08:50:10.922Z,9.00
2023-05-13T08:51:11.948Z,11.10
2023-05-13T08:52:12.346Z,10.10
2023-05-13T08:53:13.244Z,9.40
2023-05-13T08:54:14.159Z,10.00
2023-05-13T08:55:15.124Z,8.60
2023-05-13T08:56:16.045Z,10.40
2023-05-13T08:57:17.002Z,9.90
2023-05-13T08:58:18.148Z,9.20
2023-05-13T08:59:19.562Z,8.90
2023-05-13T09:00:21.516Z,9.00
2023-05-13T09:01:21.366Z,8.30
2023-05-13T09:02:21.227Z,12.10
2023-05-13T09:03:22.108Z,10.30
2023-05-13T09:04:23.015Z,7.30
2023-05-13T09:05:24.259Z,10.60
2023-05-13T09:06:24.391Z,9.40
2023-05-13T09:07:25.308Z,11.00
2023-05-13T09:08:26.164Z,12.30
2023-05-13T09:09:27.353Z,11.20
2023-05-13T09:10:27.784Z,10.70
2023-05-13T09:11:28.655Z,11.20
2023-05-13T09:12:29.562Z,10.80
2023-05-13T09:13:30.473Z,9.00
2023-05-13T09:14:31.389Z,10.90
2023-05-13T09:15:32.313Z,8.70
2023-05-13T09:16:33.270Z,9.60
2023-05-13T09:17:34.180Z,10.50
2023-05-13T09:18:35.307Z,13.10
2023-05-13T09:19:35.990Z,10.90
2023-05-13T09:20:36.441Z,9.10
2023-05-13T09:21:37.296Z,12.10
2023-05-13T09:22:38.207Z,7.70
2023-05-13T09:23:39.085Z,13.00
2023-05-13T09:24:40.001Z,8.90
2023-05-13T09:25:40.926Z,8.60
2023-05-13T09:26:41.836Z,11.10
2023-05-13T09:27:42.692Z,11.60
2023-05-13T09:28:43.811Z,9.40
2023-05-13T09:29:44.220Z,8.70
2023-05-13T09:30:46.689Z,13.00
2023-05-13T09:31:45.894Z,9.50
2023-05-13T09:32:46.501Z,9.00
2023-05-13T09:33:46.910Z,9.70
2023-05-13T09:34:47.802Z,10.20
2023-05-13T09:35:48.700Z,8.30
2023-05-13T09:36:50.732Z,9.40
2023-05-13T09:37:50.592Z,8.80
2023-05-13T09:38:51.443Z,9.30
2023-05-13T09:39:52.338Z,9.30
2023-05-13T09:40:53.873Z,10.10
2023-05-13T09:41:53.747Z,8.90
2023-05-13T09:42:54.660Z,9.30
2023-05-13T09:43:55.546Z,10.30
2023-05-13T09:44:56.432Z,11.70
2023-05-13T09:45:57.312Z,11.40
2023-05-13T09:46:58.283Z,10.60
2023-05-13T09:47:59.182Z,9.70
2023-05-13T09:49:00.024Z,8.40
2023-05-13T09:50:00.935Z,11.00
2023-05-13T09:51:01.853Z,9.60
2023-05-13T09:52:02.764Z,7.80
2023-05-13T09:53:03.701Z,8.00
2023-05-13T09:54:05.564Z,9.70
2023-05-13T09:55:05.459Z,8.20
2023-05-13T09:56:06.370Z,8.50
2023-05-13T09:57:07.284Z,9.80
2023-05-13T09:58:08.162Z,11.10
2023-05-13T09:59:09.089Z,7.40
2023-05-13T10:00:17.885Z,10.30
2023-05-13T10:01:11.791Z,8.40
2023-05-13T10:02:11.730Z,9.20
2023-05-13T10:03:12.720Z,8.80
2023-05-13T10:04:13.670Z,6.70
2023-05-13T10:05:14.562Z,10.50
2023-05-13T10:06:15.466Z,7.60
2023-05-13T10:07:16.436Z,9.30
2023-05-13T10:08:17.365Z,9.00
2023-05-13T10:09:18.232Z,9.90
2023-05-13T10:10:19.225Z,8.70
2023-05-13T10:11:20.116Z,8.40
2023-05-13T10:12:21.172Z,6.80
2023-05-13T10:13:21.590Z,8.20
2023-05-13T10:17:19.071Z,9.10
2023-05-13T10:18:18.114Z,12.60
2023-05-13T10:19:18.686Z,9.60
2023-05-13T10:20:19.229Z,8.90
2023-05-13T10:21:20.089Z,6.80
2023-05-13T10:22:20.982Z,8.90
2023-05-13T10:23:21.910Z,7.40
2023-05-13T10:24:22.796Z,7.40
2023-05-13T10:25:23.732Z,9.70
2023-05-13T10:26:24.704Z,8.00
2023-05-13T10:27:25.578Z,8.70
2023-05-13T10:28:26.497Z,8.70
2023-05-13T10:29:27.400Z,8.70
2023-05-13T10:30:28.297Z,7.50
2023-05-13T10:31:29.236Z,8.60
2023-05-13T10:32:30.187Z,9.00
2023-05-13T10:33:31.048Z,8.60
2023-05-13T10:34:31.975Z,9.50
2023-05-13T10:35:33.919Z,8.30
2023-05-13T10:36:33.409Z,10.10
2023-05-13T10:37:34.307Z,11.90
2023-05-13T10:38:35.254Z,11.10
2023-05-13T10:39:36.152Z,8.10
2023-05-13T10:40:37.065Z,13.10
2023-05-13T10:41:37.985Z,8.60
2023-05-13T10:42:38.862Z,10.50
2023-05-13T10:43:39.772Z,10.10
2023-05-13T10:44:40.652Z,9.00
2023-05-13T10:45:41.538Z,7.70
2023-05-13T10:46:42.528Z,10.70
2023-05-13T10:47:43.096Z,8.50
2023-05-13T10:48:43.829Z,8.70
2023-05-13T10:49:44.238Z,10.10
2023-05-13T10:50:45.133Z,11.10
2023-05-13T10:51:46.039Z,9.00
2023-05-13T10:52:46.957Z,8.80
2023-05-13T10:53:47.883Z,9.00
2023-05-13T10:54:48.765Z,8.30
2023-05-13T10:55:49.689Z,11.50
2023-05-13T10:56:50.591Z,6.70
2023-05-13T10:57:51.497Z,9.30
2023-05-13T10:58:52.383Z,9.00
2023-05-13T10:59:53.288Z,9.20
2023-05-13T11:00:54.181Z,8.10
2023-05-13T11:01:55.166Z,6.60
2023-05-13T11:02:56.144Z,8.10
2023-05-13T11:03:56.653Z,9.10
2023-05-13T11:04:57.196Z,10.90
2023-05-13T11:05:58.076Z,9.50
2023-05-13T11:06:59.013Z,9.90
2023-05-13T11:07:59.959Z,10.60
2023-05-13T11:09:00.900Z,8.60
2023-05-13T11:10:01.782Z,8.30
2023-05-13T11:11:02.836Z,10.10
2023-05-13T11:12:03.323Z,11.80
2023-05-13T11:13:04.202Z,9.20
2023-05-13T11:14:06.593Z,8.30
2023-05-13T11:15:05.983Z,7.10
2023-05-13T11:16:06.926Z,8.90
2023-05-13T11:17:07.876Z,10.80
2023-05-13T11:18:08.866Z,9.80
2023-05-13T11:19:09.810Z,8.30
2023-05-13T11:20:10.708Z,9.20
2023-05-13T11:21:11.630Z,9.40
2023-05-13T11:22:12.152Z,10.70
2023-05-13T11:23:13.241Z,9.60
2023-05-13T11:24:13.701Z,7.20
2023-05-13T11:25:14.620Z,9.50
2023-05-13T11:26:15.557Z,8.60
2023-05-13T11:27:16.436Z,10.80
2023-05-13T11:28:17.339Z,9.10
2023-05-13T11:29:18.225Z,6.40
2023-05-13T11:30:19.304Z,10.80
2023-05-13T11:31:19.789Z,18.70
2023-05-13T11:32:20.643Z,9.80
2023-05-13T11:33:21.615Z,39.00
2023-05-13T11:34:22.123Z,13.40
2023-05-13T11:35:23.126Z,12.60
2023-05-13T11:36:24.524Z,10.80
2023-05-13T11:37:25.776Z,9.90
2023-05-13T11:38:25.671Z,11.20
2023-05-13T11:39:26.602Z,10.10
2023-05-13T11:40:27.501Z,12.40
2023-05-13T11:41:28.371Z,9.10
2023-05-13T11:42:29.254Z,13.30
2023-05-13T11:43:30.161Z,39.40
2023-05-13T11:44:31.143Z,11.10
2023-05-13T11:45:31.608Z,8.70
2023-05-13T11:46:32.481Z,7.80
2023-05-13T11:47:33.393Z,8.80
2023-05-13T11:48:34.280Z,9.70
2023-05-13T11:49:35.201Z,10.80
2023-05-13T11:50:36.093Z,9.00
2023-05-13T11:51:36.970Z,8.20
2023-05-13T11:52:37.864Z,7.90
2023-05-13T11:53:38.781Z,9.70
2023-05-13T11:54:39.680Z,8.10
2023-05-13T11:55:40.553Z,8.00
2023-05-13T11:56:41.527Z,7.50
2023-05-13T11:57:42.396Z,7.30
2023-05-13T11:58:43.305Z,8.60
2023-05-13T11:59:48.323Z,7.50
2023-05-13T12:00:46.683Z,9.00
2023-05-13T12:01:45.672Z,8.00
2023-05-13T12:02:46.706Z,7.80
2023-05-13T12:03:47.173Z,9.90
2023-05-13T12:04:48.085Z,7.40
2023-05-13T12:05:48.949Z,8.40
2023-05-13T12:06:49.847Z,10.80
2023-05-13T12:07:50.761Z,6.90
2023-05-13T12:08:51.664Z,8.10
2023-05-13T12:09:52.587Z,7.20
2023-05-13T12:10:53.441Z,6.30
2023-05-13T12:11:54.331Z,6.70
2023-05-13T12:12:55.254Z,10.10
2023-05-13T12:13:56.126Z,9.90
2023-05-13T12:14:57.046Z,9.50
2023-05-13T12:15:57.979Z,8.90
2023-05-13T12:16:58.974Z,7.70
2023-05-13T12:17:59.459Z,9.30
2023-05-13T12:18:59.873Z,10.20
2023-05-13T12:20:00.773Z,7.50
2023-05-13T12:21:01.680Z,9.30
2023-05-13T12:22:04.708Z,7.50
2023-05-13T12:23:03.350Z,9.10
2023-05-13T12:24:04.233Z,7.70
2023-05-13T12:25:05.140Z,7.50
2023-05-13T12:26:06.082Z,8.10
2023-05-13T12:27:08.183Z,8.00
2023-05-13T12:28:07.709Z,8.80
2023-05-13T12:29:08.602Z,10.00
2023-05-13T12:30:09.653Z,7.30
2023-05-13T12:31:10.118Z,8.10
2023-05-13T12:32:11.007Z,7.50
2023-05-13T12:33:11.922Z,27.60
2023-05-13T12:34:12.792Z,19.50
2023-05-13T12:35:13.676Z,10.40
2023-05-13T12:36:14.585Z,7.60
2023-05-13T12:37:15.486Z,8.00
2023-05-13T12:38:16.370Z,23.30
2023-05-13T12:39:17.257Z,14.20
2023-05-13T12:40:18.195Z,14.60
2023-05-13T12:41:19.079Z,12.40
2023-05-13T12:42:19.963Z,10.30
2023-05-13T12:43:20.879Z,10.50
2023-05-13T12:44:21.757Z,9.10
2023-05-13T12:45:23.013Z,9.20
2023-05-13T12:46:23.722Z,9.00
2023-05-13T12:47:24.686Z,8.60
2023-05-13T12:48:25.537Z,10.00
2023-05-13T12:49:26.440Z,8.40
2023-05-13T12:50:27.352Z,7.90
2023-05-13T12:51:28.272Z,7.70
2023-05-13T12:52:28.829Z,7.20
2023-05-13T12:53:29.280Z,9.80
2023-05-13T12:54:30.223Z,10.20
2023-05-13T12:55:31.145Z,9.50
2023-05-13T12:56:32.012Z,9.10
2023-05-13T12:57:32.905Z,7.60
2023-05-13T12:58:33.790Z,7.10
2023-05-13T12:59:34.715Z,29.80
2023-05-13T13:00:35.628Z,8.90
2023-05-13T13:01:36.621Z,8.80
2023-05-13T13:02:37.207Z,9.30
2023-05-13T13:03:37.688Z,10.20
2023-05-13T13:04:38.629Z,10.50
2023-05-13T13:05:39.531Z,8.70
2023-05-13T13:06:40.415Z,9.30
2023-05-13T13:07:41.336Z,7.80
2023-05-13T13:08:42.230Z,8.50
2023-05-13T13:09:43.140Z,9.50
2023-05-13T13:10:44.056Z,8.10
2023-05-13T13:11:44.916Z,7.90
2023-05-13T13:12:45.825Z,9.20
2023-05-13T13:13:46.784Z,8.50
2023-05-13T13:14:47.645Z,10.00
2023-05-13T13:15:48.605Z,8.90
2023-05-13T13:16:49.503Z,7.40
2023-05-13T13:17:50.014Z,8.30
2023-05-13T13:18:53.090Z,10.00